Time,TemperatureF,DewpointF,PressureIn,WindDirection,WindDirectionDegrees,WindSpeedMPH,WindSpeedGustMPH,Humidity,HourlyPrecipIn,Conditions,Clouds,dailyrainin,SoftwareType,DateUTC
2013-04-26 00:01:00,33.6,28.4,30.28,SSE,165,1.0,1.0,81,0.00,,,0.00,meteohub,2013-04-26 04:01:00,
2013-04-26 00:06:00,34.2,28.6,30.28,South,184,1.0,2.0,80,0.00,,,0.00,meteohub,2013-04-26 04:06:00,
2013-04-26 00:11:00,34.3,28.6,30.28,SE,125,0.0,2.0,79,0.00,,,0.00,meteohub,2013-04-26 04:11:00,
2013-04-26 00:16:00,34.3,28.6,30.28,SE,124,1.0,2.0,79,0.00,,,0.00,meteohub,2013-04-26 04:16:00,
2013-04-26 00:21:00,34.2,28.4,30.29,ESE,103,0.0,2.0,79,0.00,,,0.00,meteohub,2013-04-26 04:21:00,
2013-04-26 00:26:00,34.0,28.2,30.29,ESE,107,0.0,2.0,79,0.00,,,0.00,meteohub,2013-04-26 04:26:00,
2013-04-26 00:31:00,33.8,28.2,30.29,ESE,122,1.0,2.0,80,0.00,,,0.00,meteohub,2013-04-26 04:31:00,
2013-04-26 00:36:00,33.4,27.9,30.29,SSE,152,1.0,2.0,80,0.00,,,0.00,meteohub,2013-04-26 04:36:00,
2013-04-26 00:42:00,33.3,28.0,30.29,ESE,123,1.0,2.0,81,0.00,,,0.00,meteohub,2013-04-26 04:42:00,
2013-04-26 00:47:00,33.3,27.7,30.29,SSE,150,1.0,3.0,80,0.00,,,0.00,meteohub,2013-04-26 04:47:00,
2013-04-26 00:52:00,33.1,27.5,30.29,East,90,1.0,3.0,80,0.00,,,0.00,meteohub,2013-04-26 04:52:00,
2013-04-26 00:57:00,33.3,27.7,30.30,SSE,148,1.0,3.0,80,0.00,,,0.00,meteohub,2013-04-26 04:57:00,
2013-04-26 01:02:00,33.1,27.5,30.30,South,189,2.0,3.0,80,0.00,,,0.00,meteohub,2013-04-26 05:02:00,
2013-04-26 01:07:00,32.9,27.7,30.30,South,171,0.0,3.0,81,0.00,,,0.00,meteohub,2013-04-26 05:07:00,
2013-04-26 01:12:00,32.5,27.3,30.30,ESE,102,0.0,3.0,81,0.00,,,0.00,meteohub,2013-04-26 05:12:00,
2013-04-26 01:17:00,32.2,27.3,30.30,ESE,115,0.0,2.0,82,0.00,,,0.00,meteohub,2013-04-26 05:17:00,
2013-04-26 01:22:00,32.2,27.3,30.30,ESE,112,0.0,2.0,82,0.00,,,0.00,meteohub,2013-04-26 05:22:00,
2013-04-26 01:27:00,32.0,27.1,30.30,ESE,107,1.0,2.0,82,0.00,,,0.00,meteohub,2013-04-26 05:27:00,
2013-04-26 01:32:00,32.2,27.7,30.30,ESE,108,0.0,2.0,83,0.00,,,0.00,meteohub,2013-04-26 05:32:00,
2013-04-26 01:37:00,32.0,27.1,30.31,SE,145,0.0,2.0,82,0.00,,,0.00,meteohub,2013-04-26 05:37:00,
2013-04-26 01:42:00,31.8,27.3,30.31,ESE,105,1.0,2.0,83,0.00,,,0.00,meteohub,2013-04-26 05:42:00,
2013-04-26 01:47:00,31.8,27.3,30.31,ESE,117,1.0,2.0,83,0.00,,,0.00,meteohub,2013-04-26 05:47:00,
2013-04-26 01:52:00,31.8,27.3,30.31,East,99,0.0,2.0,83,0.00,,,0.00,meteohub,2013-04-26 05:52:00,
2013-04-26 01:57:00,31.8,27.3,30.31,SSE,161,0.0,2.0,83,0.00,,,0.00,meteohub,2013-04-26 05:57:00,
2013-04-26 02:02:00,31.8,27.3,30.31,ESE,117,0.0,2.0,83,0.00,,,0.00,meteohub,2013-04-26 06:02:00,
2013-04-26 02:07:00,31.8,27.3,30.30,ESE,103,1.0,2.0,83,0.00,,,0.00,meteohub,2013-04-26 06:07:00,
2013-04-26 02:12:00,31.8,27.3,30.30,ESE,113,0.0,2.0,83,0.00,,,0.00,meteohub,2013-04-26 06:12:00,
2013-04-26 02:17:00,31.6,27.1,30.30,ESE,115,2.0,2.0,83,0.00,,,0.00,meteohub,2013-04-26 06:17:00,
2013-04-26 02:22:00,31.8,27.3,30.30,SSE,161,1.0,2.0,83,0.00,,,0.00,meteohub,2013-04-26 06:22:00,
2013-04-26 02:27:00,31.8,27.3,30.31,NE,48,0.0,2.0,83,0.00,,,0.00,meteohub,2013-04-26 06:27:00,
2013-04-26 02:32:00,32.2,27.7,30.31,South,172,2.0,2.0,83,0.00,,,0.00,meteohub,2013-04-26 06:32:00,
2013-04-26 02:37:00,32.4,27.1,30.31,ESE,103,1.0,3.0,81,0.00,,,0.00,meteohub,2013-04-26 06:37:00,
2013-04-26 02:42:00,32.5,27.7,30.30,SE,135,0.0,3.0,82,0.00,,,0.00,meteohub,2013-04-26 06:42:00,
2013-04-26 02:47:00,32.5,27.3,30.31,SE,138,0.0,3.0,81,0.00,,,0.00,meteohub,2013-04-26 06:47:00,
2013-04-26 02:52:00,32.4,27.5,30.31,ESE,115,0.0,2.0,82,0.00,,,0.00,meteohub,2013-04-26 06:52:00,
2013-04-26 02:57:00,32.4,27.9,30.31,ESE,115,0.0,2.0,83,0.00,,,0.00,meteohub,2013-04-26 06:57:00,
2013-04-26 03:02:00,32.2,27.3,30.31,SE,129,0.0,2.0,82,0.00,,,0.00,meteohub,2013-04-26 07:02:00,
2013-04-26 03:07:00,32.2,27.3,30.31,East,86,0.0,2.0,82,0.00,,,0.00,meteohub,2013-04-26 07:07:00,
2013-04-26 03:12:00,32.2,27.3,30.31,ESE,115,0.0,2.0,82,0.00,,,0.00,meteohub,2013-04-26 07:12:00,
2013-04-26 03:17:00,32.2,27.3,30.31,ESE,105,0.0,2.0,82,0.00,,,0.00,meteohub,2013-04-26 07:17:00,
2013-04-26 03:22:00,32.4,27.5,30.31,SE,138,0.0,2.0,82,0.00,,,0.00,meteohub,2013-04-26 07:22:00,
2013-04-26 03:27:00,32.4,27.5,30.31,SSE,148,2.0,2.0,82,0.00,,,0.00,meteohub,2013-04-26 07:27:00,
2013-04-26 03:32:00,32.4,27.5,30.31,ESE,123,0.0,2.0,82,0.00,,,0.00,meteohub,2013-04-26 07:32:00,
2013-04-26 03:37:00,32.4,27.5,30.31,ESE,113,0.0,2.0,82,0.00,,,0.00,meteohub,2013-04-26 07:37:00,
2013-04-26 03:42:00,32.2,27.7,30.31,SSE,148,1.0,2.0,83,0.00,,,0.00,meteohub,2013-04-26 07:42:00,
2013-04-26 03:47:00,32.2,27.7,30.31,SSE,160,0.0,2.0,83,0.00,,,0.00,meteohub,2013-04-26 07:47:00,
2013-04-26 03:52:00,32.4,27.5,30.31,SSE,155,2.0,3.0,82,0.00,,,0.00,meteohub,2013-04-26 07:52:00,
2013-04-26 03:57:00,32.5,27.7,30.31,ESE,106,0.0,3.0,82,0.00,,,0.00,meteohub,2013-04-26 07:57:00,
2013-04-26 04:02:00,32.4,27.5,30.31,ESE,109,1.0,3.0,82,0.00,,,0.00,meteohub,2013-04-26 08:02:00,
2013-04-26 04:07:00,32.4,27.5,30.31,ESE,102,0.0,3.0,82,0.00,,,0.00,meteohub,2013-04-26 08:07:00,
2013-04-26 04:12:00,32.2,27.7,30.32,SE,137,0.0,2.0,83,0.00,,,0.00,meteohub,2013-04-26 08:12:00,
2013-04-26 04:17:00,32.2,27.7,30.32,SSE,157,0.0,2.0,83,0.00,,,0.00,meteohub,2013-04-26 08:17:00,
2013-04-26 04:22:00,32.4,27.9,30.31,SSE,168,0.0,2.0,83,0.00,,,0.00,meteohub,2013-04-26 08:22:00,
2013-04-26 04:27:00,32.7,27.9,30.31,SSE,154,0.0,2.0,82,0.00,,,0.00,meteohub,2013-04-26 08:27:00,
2013-04-26 04:32:00,33.1,27.9,30.31,SE,124,0.0,2.0,81,0.00,,,0.00,meteohub,2013-04-26 08:32:00,
2013-04-26 04:37:00,33.3,28.0,30.31,SE,144,0.0,2.0,81,0.00,,,0.00,meteohub,2013-04-26 08:37:00,
2013-04-26 04:42:00,33.4,28.2,30.32,SSE,152,0.0,3.0,81,0.00,,,0.00,meteohub,2013-04-26 08:42:00,
2013-04-26 04:47:00,33.6,28.0,30.31,SW,216,1.0,3.0,80,0.00,,,0.00,meteohub,2013-04-26 08:47:00,
2013-04-26 04:52:00,34.0,28.4,30.31,SE,126,1.0,3.0,80,0.00,,,0.00,meteohub,2013-04-26 08:52:00,
2013-04-26 04:57:00,33.8,28.0,30.31,SE,133,0.0,3.0,79,0.00,,,0.00,meteohub,2013-04-26 08:57:00,
2013-04-26 05:02:00,33.6,27.9,30.31,ENE,77,1.0,3.0,79,0.00,,,0.00,meteohub,2013-04-26 09:02:00,
2013-04-26 05:07:00,33.8,28.0,30.31,ESE,105,0.0,3.0,79,0.00,,,0.00,meteohub,2013-04-26 09:07:00,
2013-04-26 05:12:00,34.0,28.2,30.32,SE,129,1.0,3.0,79,0.00,,,0.00,meteohub,2013-04-26 09:12:00,
2013-04-26 05:17:00,34.2,28.4,30.32,SW,226,1.0,3.0,79,0.00,,,0.00,meteohub,2013-04-26 09:17:00,
2013-04-26 05:22:00,34.3,28.2,30.32,SE,133,1.0,3.0,78,0.00,,,0.00,meteohub,2013-04-26 09:22:00,
2013-04-26 05:27:00,34.3,28.8,30.32,SSE,162,0.0,3.0,80,0.00,,,0.00,meteohub,2013-04-26 09:27:00,
2013-04-26 05:32:00,34.0,28.4,30.31,SSE,162,0.0,3.0,80,0.00,,,0.00,meteohub,2013-04-26 09:32:00,
2013-04-26 05:37:00,33.4,27.9,30.31,SSE,167,0.0,2.0,80,0.00,,,0.00,meteohub,2013-04-26 09:37:00,
2013-04-26 05:42:00,33.4,27.9,30.31,East,91,0.0,1.0,80,0.00,,,0.00,meteohub,2013-04-26 09:42:00,
2013-04-26 05:47:00,33.6,28.0,30.32,SSW,207,0.0,1.0,80,0.00,,,0.00,meteohub,2013-04-26 09:47:00,
2013-04-26 05:52:00,34.0,28.4,30.32,South,185,1.0,2.0,80,0.00,,,0.00,meteohub,2013-04-26 09:52:00,
2013-04-26 05:57:00,34.2,28.6,30.32,West,268,0.0,2.0,80,0.00,,,0.00,meteohub,2013-04-26 09:57:00,
2013-04-26 06:02:00,34.3,28.6,30.32,SSE,155,0.0,2.0,79,0.00,,,0.00,meteohub,2013-04-26 10:02:00,
2013-04-26 06:07:00,34.5,28.8,30.32,ESE,106,2.0,3.0,79,0.00,,,0.00,meteohub,2013-04-26 10:07:00,
2013-04-26 06:12:00,34.5,28.8,30.32,ENE,73,2.0,4.0,79,0.00,,,0.00,meteohub,2013-04-26 10:12:00,
2013-04-26 06:17:00,34.5,28.8,30.32,NE,41,0.0,4.0,79,0.00,,,0.00,meteohub,2013-04-26 10:17:00,
2013-04-26 06:22:00,34.5,28.9,30.32,East,79,2.0,3.0,80,0.00,,,0.00,meteohub,2013-04-26 10:22:00,
2013-04-26 06:27:00,34.5,28.8,30.32,SSE,151,1.0,3.0,79,0.00,,,0.00,meteohub,2013-04-26 10:27:00,
2013-04-26 06:32:00,34.7,28.6,30.32,SE,138,0.0,3.0,78,0.00,,,0.00,meteohub,2013-04-26 10:32:00,
2013-04-26 06:37:00,34.9,28.8,30.32,ENE,63,1.0,3.0,78,0.00,,,0.00,meteohub,2013-04-26 10:37:00,
2013-04-26 06:42:00,34.9,28.8,30.32,SSE,154,2.0,3.0,78,0.00,,,0.00,meteohub,2013-04-26 10:42:00,
2013-04-26 06:47:00,34.9,28.8,30.32,SSE,155,1.0,4.0,78,0.00,,,0.00,meteohub,2013-04-26 10:47:00,
2013-04-26 06:52:00,34.9,28.8,30.33,East,92,0.0,4.0,78,0.00,,,0.00,meteohub,2013-04-26 10:52:00,
2013-04-26 06:57:00,35.1,28.9,30.33,NNE,17,1.0,4.0,78,0.00,,,0.00,meteohub,2013-04-26 10:57:00,
2013-04-26 07:02:00,35.1,28.9,30.33,East,90,2.0,3.0,78,0.00,,,0.00,meteohub,2013-04-26 11:02:00,
2013-04-26 07:07:00,35.2,29.1,30.33,East,91,1.0,3.0,78,0.00,,,0.00,meteohub,2013-04-26 11:07:00,
2013-04-26 07:12:00,35.4,29.5,30.33,SSW,203,0.0,3.0,79,0.00,,,0.00,meteohub,2013-04-26 11:12:00,
2013-04-26 07:17:00,35.6,29.5,30.33,NE,47,1.0,3.0,78,0.00,,,0.00,meteohub,2013-04-26 11:17:00,
2013-04-26 07:22:00,35.8,29.7,30.33,NW,310,1.0,4.0,78,0.00,,,0.00,meteohub,2013-04-26 11:22:00,
2013-04-26 07:27:00,36.1,29.7,30.33,East,79,0.0,4.0,77,0.00,,,0.00,meteohub,2013-04-26 11:27:00,
2013-04-26 07:32:00,36.3,29.8,30.33,NE,46,3.0,4.0,77,0.00,,,0.00,meteohub,2013-04-26 11:32:00,
2013-04-26 07:37:00,36.5,30.0,30.33,SE,136,1.0,5.0,77,0.00,,,0.00,meteohub,2013-04-26 11:37:00,
2013-04-26 07:42:00,36.7,30.2,30.33,SSW,203,0.0,5.0,77,0.00,,,0.00,meteohub,2013-04-26 11:42:00,
2013-04-26 07:47:00,37.0,30.6,30.33,South,179,1.0,5.0,77,0.00,,,0.00,meteohub,2013-04-26 11:47:00,
2013-04-26 07:52:00,37.2,30.4,30.34,SSW,201,0.0,3.0,76,0.00,,,0.00,meteohub,2013-04-26 11:52:00,
2013-04-26 07:57:00,37.2,30.4,30.34,WSW,251,3.0,3.0,76,0.00,,,0.00,meteohub,2013-04-26 11:57:00,
2013-04-26 08:02:00,37.4,30.6,30.34,SSW,213,1.0,4.0,76,0.00,,,0.00,meteohub,2013-04-26 12:02:00,
2013-04-26 08:07:00,37.6,30.7,30.34,SSE,151,1.0,4.0,76,0.00,,,0.00,meteohub,2013-04-26 12:07:00,
2013-04-26 08:12:00,37.8,30.9,30.34,SSE,152,2.0,4.0,76,0.00,,,0.00,meteohub,2013-04-26 12:12:00,
2013-04-26 08:17:00,37.9,30.7,30.34,ENE,64,1.0,4.0,75,0.00,,,0.00,meteohub,2013-04-26 12:17:00,
2013-04-26 08:22:00,38.3,31.1,30.35,South,183,1.0,4.0,75,0.00,,,0.00,meteohub,2013-04-26 12:22:00,
2013-04-26 08:27:00,38.7,31.1,30.34,WSW,243,0.0,4.0,74,0.00,,,0.00,meteohub,2013-04-26 12:27:00,
2013-04-26 08:32:00,39.0,31.5,30.35,South,176,2.0,4.0,74,0.00,,,0.00,meteohub,2013-04-26 12:32:00,
2013-04-26 08:37:00,39.4,31.8,30.35,SW,216,1.0,4.0,74,0.00,,,0.00,meteohub,2013-04-26 12:37:00,
2013-04-26 08:42:00,39.9,32.4,30.35,ESE,119,3.0,4.0,74,0.00,,,0.00,meteohub,2013-04-26 12:42:00,
2013-04-26 08:47:00,40.5,32.5,30.35,NNE,27,2.0,5.0,73,0.00,,,0.00,meteohub,2013-04-26 12:47:00,
2013-04-26 08:52:00,40.6,32.4,30.35,SE,126,2.0,5.0,72,0.00,,,0.00,meteohub,2013-04-26 12:52:00,
2013-04-26 08:57:00,41.2,32.5,30.35,SE,124,1.0,5.0,71,0.00,,,0.00,meteohub,2013-04-26 12:57:00,
2013-04-26 09:02:00,41.5,32.2,30.35,ENE,72,2.0,4.0,69,0.00,,,0.00,meteohub,2013-04-26 13:02:00,
2013-04-26 09:07:00,42.1,32.7,30.35,SSW,194,0.0,5.0,69,0.00,,,0.00,meteohub,2013-04-26 13:07:00,
2013-04-26 09:11:00,43.0,32.7,30.35,ESE,112,1.0,5.0,67,0.00,,,0.00,meteohub,2013-04-26 13:11:00,
2013-04-26 09:17:00,43.9,33.3,30.35,SE,134,4.0,5.0,66,0.00,,,0.00,meteohub,2013-04-26 13:17:00,
2013-04-26 09:22:00,44.4,33.1,30.35,ESE,102,0.0,5.0,64,0.00,,,0.00,meteohub,2013-04-26 13:22:00,
2013-04-26 09:27:00,45.0,32.7,30.35,ESE,103,2.0,5.0,62,0.00,,,0.00,meteohub,2013-04-26 13:27:00,
2013-04-26 09:32:00,45.7,33.1,30.34,SE,143,0.0,5.0,61,0.00,,,0.00,meteohub,2013-04-26 13:32:00,
2013-04-26 09:37:00,46.2,33.1,30.35,SSW,213,2.0,5.0,60,0.00,,,0.00,meteohub,2013-04-26 13:37:00,
2013-04-26 09:42:00,46.6,33.1,30.34,SSE,155,0.0,4.0,59,0.00,,,0.00,meteohub,2013-04-26 13:42:00,
2013-04-26 09:47:00,46.8,33.3,30.35,South,185,2.0,4.0,59,0.00,,,0.00,meteohub,2013-04-26 13:47:00,
2013-04-26 09:52:00,47.3,33.6,30.34,ESE,122,1.0,4.0,59,0.00,,,0.00,meteohub,2013-04-26 13:52:00,
2013-04-26 09:57:00,47.7,33.3,30.34,ESE,105,3.0,6.0,57,0.00,,,0.00,meteohub,2013-04-26 13:57:00,
2013-04-26 10:02:00,48.2,33.3,30.34,SSE,167,3.0,7.0,56,0.00,,,0.00,meteohub,2013-04-26 14:02:00,
2013-04-26 10:07:00,48.4,33.8,30.34,ESE,115,2.0,7.0,57,0.00,,,0.00,meteohub,2013-04-26 14:07:00,
2013-04-26 10:12:00,48.6,33.6,30.34,East,93,2.0,7.0,56,0.00,,,0.00,meteohub,2013-04-26 14:12:00,
2013-04-26 10:17:00,48.7,33.3,30.34,SSW,200,1.0,5.0,55,0.00,,,0.00,meteohub,2013-04-26 14:17:00,
2013-04-26 10:22:00,49.3,32.9,30.33,SW,236,3.0,5.0,53,0.00,,,0.00,meteohub,2013-04-26 14:22:00,
2013-04-26 10:27:00,49.3,32.9,30.33,South,181,1.0,10.0,53,0.00,,,0.00,meteohub,2013-04-26 14:27:00,
2013-04-26 10:32:00,49.5,32.5,30.33,WNW,285,2.0,12.0,52,0.00,,,0.00,meteohub,2013-04-26 14:32:00,
2013-04-26 10:37:00,49.6,33.3,30.33,WSW,238,2.0,12.0,53,0.00,,,0.00,meteohub,2013-04-26 14:37:00,
2013-04-26 10:42:00,49.8,32.9,30.32,SE,136,4.0,10.0,52,0.00,,,0.00,meteohub,2013-04-26 14:42:00,
2013-04-26 10:47:00,50.0,33.1,30.32,ESE,102,3.0,10.0,52,0.00,,,0.00,meteohub,2013-04-26 14:47:00,
2013-04-26 10:52:00,50.5,33.1,30.33,ENE,77,5.0,8.0,51,0.00,,,0.00,meteohub,2013-04-26 14:52:00,
2013-04-26 10:57:00,50.4,32.4,30.33,South,172,0.0,7.0,50,0.00,,,0.00,meteohub,2013-04-26 14:57:00,
2013-04-26 11:02:00,50.4,32.0,30.33,NNE,29,2.0,11.0,49,0.00,,,0.00,meteohub,2013-04-26 15:02:00,
2013-04-26 11:07:00,51.3,33.8,30.33,ENE,75,2.0,11.0,51,0.00,,,0.00,meteohub,2013-04-26 15:07:00,
2013-04-26 11:12:00,52.0,32.9,30.34,WSW,253,1.0,11.0,48,0.00,,,0.00,meteohub,2013-04-26 15:12:00,
2013-04-26 11:17:00,52.2,32.5,30.34,East,92,1.0,10.0,47,0.00,,,0.00,meteohub,2013-04-26 15:17:00,
2013-04-26 11:22:00,52.2,32.0,30.34,ENE,78,3.0,10.0,46,0.00,,,0.00,meteohub,2013-04-26 15:22:00,
2013-04-26 11:27:00,51.4,31.3,30.34,ENE,67,1.0,10.0,46,0.00,,,0.00,meteohub,2013-04-26 15:27:00,
2013-04-26 11:32:00,51.1,31.6,30.34,NE,34,1.0,9.0,47,0.00,,,0.00,meteohub,2013-04-26 15:32:00,
2013-04-26 11:37:00,50.7,31.8,30.34,West,269,3.0,9.0,48,0.00,,,0.00,meteohub,2013-04-26 15:37:00,
2013-04-26 11:42:00,50.4,32.0,30.35,SSW,192,4.0,9.0,49,0.00,,,0.00,meteohub,2013-04-26 15:42:00,
2013-04-26 11:47:00,49.5,32.5,30.35,SSW,213,3.0,9.0,52,0.00,,,0.00,meteohub,2013-04-26 15:47:00,
2013-04-26 11:52:00,48.2,34.2,30.35,NNE,30,2.0,11.0,58,0.00,,,0.00,meteohub,2013-04-26 15:52:00,
2013-04-26 11:57:00,47.5,33.8,30.35,SW,218,4.0,11.0,59,0.00,,,0.00,meteohub,2013-04-26 15:57:00,
2013-04-26 12:02:00,46.6,35.1,30.35,East,91,1.0,11.0,64,0.00,,,0.00,meteohub,2013-04-26 16:02:00,
2013-04-26 12:07:00,46.0,35.8,30.35,SW,218,1.0,8.0,67,0.00,,,0.00,meteohub,2013-04-26 16:07:00,
2013-04-26 12:12:00,46.0,35.8,30.34,SSE,154,0.0,8.0,67,0.00,,,0.00,meteohub,2013-04-26 16:12:00,
2013-04-26 12:17:00,46.0,36.1,30.34,East,79,3.0,7.0,68,0.00,,,0.00,meteohub,2013-04-26 16:17:00,
2013-04-26 12:22:00,46.0,35.8,30.34,East,86,4.0,10.0,67,0.00,,,0.00,meteohub,2013-04-26 16:22:00,
2013-04-26 12:27:00,46.0,36.1,30.33,NE,43,1.0,10.0,68,0.00,,,0.00,meteohub,2013-04-26 16:27:00,
2013-04-26 12:32:00,46.4,36.5,30.33,South,178,1.0,10.0,68,0.00,,,0.00,meteohub,2013-04-26 16:32:00,
2013-04-26 12:37:00,46.8,36.3,30.32,South,182,1.0,7.0,67,0.00,,,0.00,meteohub,2013-04-26 16:37:00,
2013-04-26 12:42:00,47.5,36.7,30.32,SSW,203,1.0,7.0,66,0.00,,,0.00,meteohub,2013-04-26 16:42:00,
2013-04-26 12:47:00,48.0,36.9,30.32,ENE,77,4.0,7.0,65,0.00,,,0.00,meteohub,2013-04-26 16:47:00,
2013-04-26 12:52:00,48.6,36.1,30.30,SE,137,4.0,6.0,62,0.00,,,0.00,meteohub,2013-04-26 16:52:00,
2013-04-26 12:57:00,49.1,36.3,30.31,NNW,343,3.0,12.0,61,0.00,,,0.00,meteohub,2013-04-26 16:57:00,
2013-04-26 13:02:00,49.5,35.8,30.30,SSW,192,2.0,12.0,59,0.00,,,0.00,meteohub,2013-04-26 17:02:00,
2013-04-26 13:07:00,49.3,35.1,30.30,South,184,3.0,12.0,58,0.00,,,0.00,meteohub,2013-04-26 17:07:00,
2013-04-26 13:12:00,49.3,35.6,30.30,WNW,287,1.0,9.0,59,0.00,,,0.00,meteohub,2013-04-26 17:12:00,
2013-04-26 13:17:00,49.3,35.1,30.30,SSW,204,1.0,7.0,58,0.00,,,0.00,meteohub,2013-04-26 17:17:00,
2013-04-26 13:22:00,49.6,35.4,30.29,NNE,24,3.0,7.0,58,0.00,,,0.00,meteohub,2013-04-26 17:22:00,
2013-04-26 13:27:00,50.2,35.6,30.29,ESE,116,2.0,7.0,57,0.00,,,0.00,meteohub,2013-04-26 17:27:00,
2013-04-26 13:32:00,50.5,35.1,30.29,SSE,148,3.0,7.0,55,0.00,,,0.00,meteohub,2013-04-26 17:32:00,
2013-04-26 13:37:00,50.9,34.9,30.28,SSW,203,4.0,9.0,54,0.00,,,0.00,meteohub,2013-04-26 17:37:00,
2013-04-26 13:42:00,51.4,35.4,30.28,South,189,6.0,11.0,54,0.00,,,0.00,meteohub,2013-04-26 17:42:00,
2013-04-26 13:47:00,52.3,35.8,30.28,ENE,72,5.0,11.0,53,0.00,,,0.00,meteohub,2013-04-26 17:47:00,
2013-04-26 13:52:00,52.9,35.2,30.28,ESE,103,3.0,11.0,51,0.00,,,0.00,meteohub,2013-04-26 17:52:00,
2013-04-26 13:57:00,53.1,35.4,30.28,SSW,212,4.0,10.0,51,0.00,,,0.00,meteohub,2013-04-26 17:57:00,
2013-04-26 14:02:00,53.2,35.1,30.27,WSW,237,4.0,10.0,50,0.00,,,0.00,meteohub,2013-04-26 18:02:00,
2013-04-26 14:07:00,53.4,35.8,30.27,SW,233,2.0,10.0,51,0.00,,,0.00,meteohub,2013-04-26 18:07:00,
2013-04-26 14:12:00,53.8,35.1,30.27,East,83,1.0,10.0,49,0.00,,,0.00,meteohub,2013-04-26 18:12:00,
2013-04-26 14:17:00,54.9,36.5,30.27,SW,226,1.0,10.0,50,0.00,,,0.00,meteohub,2013-04-26 18:17:00,
2013-04-26 14:22:00,55.0,35.8,30.27,East,87,2.0,13.0,48,0.00,,,0.00,meteohub,2013-04-26 18:22:00,
2013-04-26 14:27:00,55.8,36.3,30.26,NE,51,2.0,13.0,48,0.00,,,0.00,meteohub,2013-04-26 18:27:00,
2013-04-26 14:32:00,56.1,36.1,30.26,ENE,58,1.0,13.0,47,0.00,,,0.00,meteohub,2013-04-26 18:32:00,
2013-04-26 14:37:00,56.7,36.7,30.26,East,98,2.0,10.0,47,0.00,,,0.00,meteohub,2013-04-26 18:37:00,
2013-04-26 14:42:00,56.8,36.9,30.25,East,91,3.0,10.0,47,0.00,,,0.00,meteohub,2013-04-26 18:42:00,
2013-04-26 15:01:00,53.6,34.9,30.27,South,180,10.0,-999.0,49,0.00,,,0.00,meteohub,2013-04-26 19:01:00,
2013-04-26 15:06:00,53.6,34.9,30.27,South,180,10.0,-999.0,49,0.00,,,0.00,meteohub,2013-04-26 19:06:00,
2013-04-26 15:11:00,53.6,34.9,30.23,South,180,10.0,-999.0,49,0.00,,,0.00,meteohub,2013-04-26 19:11:00,
2013-04-26 15:16:00,58.5,36.7,30.22,South,180,10.0,-999.0,44,0.00,,,0.00,meteohub,2013-04-26 19:16:00,
2013-04-26 15:21:00,58.6,36.1,30.24,South,182,3.0,-999.0,43,0.00,,,0.00,meteohub,2013-04-26 19:21:00,
2013-04-26 15:26:00,58.6,36.1,30.23,WNW,290,2.0,-999.0,43,0.00,,,0.00,meteohub,2013-04-26 19:26:00,
2013-04-26 15:31:00,58.8,37.0,30.23,SSE,159,6.0,10.0,44,0.00,,,0.00,meteohub,2013-04-26 19:31:00,
2013-04-26 15:36:00,59.5,37.6,30.23,NW,318,2.0,10.0,44,0.00,,,0.00,meteohub,2013-04-26 19:36:00,
2013-04-26 15:41:00,60.1,38.1,30.22,East,88,9.0,10.0,44,0.00,,,0.00,meteohub,2013-04-26 19:41:00,
2013-04-26 15:46:00,60.4,37.2,30.21,NE,51,4.0,11.0,42,0.00,,,0.00,meteohub,2013-04-26 19:46:00,
2013-04-26 15:51:00,60.6,37.9,30.20,SSE,158,4.0,11.0,43,0.00,,,0.00,meteohub,2013-04-26 19:51:00,
2013-04-26 15:56:00,61.0,37.8,30.21,SSW,207,2.0,14.0,42,0.00,,,0.00,meteohub,2013-04-26 19:56:00,
2013-04-26 16:01:00,61.7,38.3,30.21,South,174,4.0,14.0,42,0.00,,,0.00,meteohub,2013-04-26 20:01:00,
2013-04-26 16:06:00,61.5,38.3,30.21,ESE,119,3.0,14.0,42,0.00,,,0.00,meteohub,2013-04-26 20:06:00,
2013-04-26 16:11:00,61.5,37.6,30.20,ESE,110,2.0,10.0,41,0.00,,,0.00,meteohub,2013-04-26 20:11:00,
2013-04-26 16:17:00,61.9,38.5,30.20,ENE,60,4.0,12.0,42,0.00,,,0.00,meteohub,2013-04-26 20:17:00,
2013-04-26 16:22:00,62.2,38.3,30.20,SSW,210,4.0,12.0,41,0.00,,,0.00,meteohub,2013-04-26 20:22:00,
2013-04-26 16:27:00,62.1,38.1,30.19,WNW,287,2.0,12.0,41,0.00,,,0.00,meteohub,2013-04-26 20:27:00,
2013-04-26 16:32:00,62.1,38.1,30.19,ESE,108,11.0,15.0,41,0.00,,,0.00,meteohub,2013-04-26 20:32:00,
2013-04-26 16:37:00,62.1,37.4,30.19,ENE,60,3.0,15.0,40,0.00,,,0.00,meteohub,2013-04-26 20:37:00,
2013-04-26 16:42:00,62.4,37.8,30.18,SW,221,2.0,11.0,40,0.00,,,0.00,meteohub,2013-04-26 20:42:00,
2013-04-26 16:47:00,62.2,37.0,30.18,WSW,257,2.0,13.0,39,0.00,,,0.00,meteohub,2013-04-26 20:47:00,
2013-04-26 16:52:00,62.2,37.0,30.18,NNW,330,2.0,14.0,39,0.00,,,0.00,meteohub,2013-04-26 20:52:00,
2013-04-26 16:57:00,63.0,37.6,30.18,WSW,241,1.0,14.0,39,0.00,,,0.00,meteohub,2013-04-26 20:57:00,
2013-04-26 17:02:00,63.3,37.9,30.18,South,184,3.0,14.0,39,0.00,,,0.00,meteohub,2013-04-26 21:02:00,
2013-04-26 17:07:00,63.1,36.5,30.17,South,186,5.0,9.0,37,0.00,,,0.00,meteohub,2013-04-26 21:07:00,
2013-04-26 17:12:00,63.0,36.3,30.17,SSW,204,2.0,15.0,37,0.00,,,0.00,meteohub,2013-04-26 21:12:00,
2013-04-26 17:17:00,63.1,37.0,30.17,WSW,250,3.0,15.0,38,0.00,,,0.00,meteohub,2013-04-26 21:17:00,
2013-04-26 17:22:00,63.3,35.2,30.17,East,88,3.0,15.0,35,0.00,,,0.00,meteohub,2013-04-26 21:22:00,
2013-04-26 17:27:00,63.1,35.8,30.17,East,85,8.0,11.0,36,0.00,,,0.00,meteohub,2013-04-26 21:27:00,
2013-04-26 17:32:00,62.6,35.2,30.17,WSW,254,3.0,12.0,36,0.00,,,0.00,meteohub,2013-04-26 21:32:00,
2013-04-26 17:37:00,63.0,35.6,30.17,NNE,29,4.0,12.0,36,0.00,,,0.00,meteohub,2013-04-26 21:37:00,
2013-04-26 17:42:00,63.1,35.8,30.17,WSW,238,2.0,12.0,36,0.00,,,0.00,meteohub,2013-04-26 21:42:00,
2013-04-26 17:47:00,63.0,35.6,30.17,East,91,1.0,11.0,36,0.00,,,0.00,meteohub,2013-04-26 21:47:00,
2013-04-26 17:52:00,63.1,35.8,30.17,SE,137,1.0,11.0,36,0.00,,,0.00,meteohub,2013-04-26 21:52:00,
2013-04-26 17:57:00,63.1,35.8,30.17,South,189,3.0,11.0,36,0.00,,,0.00,meteohub,2013-04-26 21:57:00,
2013-04-26 18:02:00,63.1,35.8,30.16,SE,126,3.0,10.0,36,0.00,,,0.00,meteohub,2013-04-26 22:02:00,
2013-04-26 18:07:00,63.3,36.0,30.16,ESE,105,2.0,9.0,36,0.00,,,0.00,meteohub,2013-04-26 22:07:00,
2013-04-26 18:12:00,63.5,36.1,30.16,SSW,209,2.0,11.0,36,0.00,,,0.00,meteohub,2013-04-26 22:12:00,
2013-04-26 18:17:00,63.1,35.8,30.16,SSE,162,2.0,13.0,36,0.00,,,0.00,meteohub,2013-04-26 22:17:00,
2013-04-26 18:22:00,63.0,36.3,30.17,SSW,192,1.0,13.0,37,0.00,,,0.00,meteohub,2013-04-26 22:22:00,
2013-04-26 18:27:00,63.5,36.7,30.16,SE,145,2.0,11.0,37,0.00,,,0.00,meteohub,2013-04-26 22:27:00,
2013-04-26 18:32:00,63.7,35.6,30.15,SSE,168,12.0,12.0,35,0.00,,,0.00,meteohub,2013-04-26 22:32:00,
2013-04-26 18:37:00,63.0,35.6,30.16,SE,129,1.0,14.0,36,0.00,,,0.00,meteohub,2013-04-26 22:37:00,
2013-04-26 18:42:00,62.4,35.1,30.15,SW,228,4.0,14.0,36,0.00,,,0.00,meteohub,2013-04-26 22:42:00,
2013-04-26 18:47:00,62.1,35.4,30.15,SSW,200,1.0,14.0,37,0.00,,,0.00,meteohub,2013-04-26 22:47:00,
2013-04-26 18:52:00,61.9,35.2,30.15,South,176,1.0,10.0,37,0.00,,,0.00,meteohub,2013-04-26 22:52:00,
2013-04-26 18:57:00,61.9,36.0,30.15,SW,216,2.0,10.0,38,0.00,,,0.00,meteohub,2013-04-26 22:57:00,
2013-04-26 19:02:00,62.1,35.4,30.16,SSE,165,0.0,10.0,37,0.00,,,0.00,meteohub,2013-04-26 23:02:00,
2013-04-26 19:07:00,61.9,36.0,30.15,SSW,199,3.0,7.0,38,0.00,,,0.00,meteohub,2013-04-26 23:07:00,
2013-04-26 19:12:00,61.5,36.3,30.16,East,98,0.0,7.0,39,0.00,,,0.00,meteohub,2013-04-26 23:12:00,
2013-04-26 19:17:00,61.3,35.6,30.16,SE,130,2.0,5.0,38,0.00,,,0.00,meteohub,2013-04-26 23:17:00,
2013-04-26 19:22:00,61.3,36.1,30.15,SSW,201,1.0,5.0,39,0.00,,,0.00,meteohub,2013-04-26 23:22:00,
2013-04-26 19:27:00,61.3,36.1,30.16,ENE,66,1.0,4.0,39,0.00,,,0.00,meteohub,2013-04-26 23:27:00,
2013-04-26 19:32:00,61.2,36.0,30.15,WSW,242,0.0,4.0,39,0.00,,,0.00,meteohub,2013-04-26 23:32:00,
2013-04-26 19:37:00,61.0,35.8,30.15,SSE,155,2.0,6.0,39,0.00,,,0.00,meteohub,2013-04-26 23:37:00,
2013-04-26 19:42:00,61.0,35.8,30.15,SSW,201,1.0,6.0,39,0.00,,,0.00,meteohub,2013-04-26 23:42:00,
2013-04-26 19:47:00,60.6,36.1,30.15,East,92,1.0,4.0,40,0.00,,,0.00,meteohub,2013-04-26 23:47:00,
2013-04-26 19:52:00,60.1,36.9,30.15,South,188,1.0,4.0,42,0.00,,,0.00,meteohub,2013-04-26 23:52:00,
2013-04-26 20:05:00,58.5,36.7,30.16,ENE,77,0.0,4.0,44,0.00,,,0.00,meteohub,2013-04-27 00:05:00,
2013-04-26 20:10:00,57.7,36.0,30.16,SSE,162,0.0,4.0,44,0.00,,,0.00,meteohub,2013-04-27 00:10:00,
2013-04-26 20:16:00,57.4,36.1,30.16,SSW,202,1.0,1.0,45,0.00,,,0.00,meteohub,2013-04-27 00:16:00,
2013-04-26 20:21:00,56.8,35.8,30.16,SE,134,0.0,2.0,45,0.00,,,0.00,meteohub,2013-04-27 00:21:00,
2013-04-26 20:26:00,56.5,36.0,30.16,SE,138,0.0,2.0,46,0.00,,,0.00,meteohub,2013-04-27 00:26:00,
2013-04-26 20:31:00,55.9,36.0,30.16,SSW,192,1.0,2.0,47,0.00,,,0.00,meteohub,2013-04-27 00:31:00,
2013-04-26 20:36:00,55.8,36.3,30.16,South,190,0.0,1.0,48,0.00,,,0.00,meteohub,2013-04-27 00:36:00,
2013-04-26 20:41:00,55.4,36.0,30.17,South,189,0.0,1.0,48,0.00,,,0.00,meteohub,2013-04-27 00:41:00,
2013-04-26 20:46:00,55.2,36.3,30.17,South,189,0.0,1.0,49,0.00,,,0.00,meteohub,2013-04-27 00:46:00,
2013-04-26 20:51:00,54.9,36.5,30.17,SSW,205,0.0,1.0,50,0.00,,,0.00,meteohub,2013-04-27 00:51:00,
2013-04-26 20:56:00,54.7,36.9,30.17,SSW,206,0.0,1.0,51,0.00,,,0.00,meteohub,2013-04-27 00:56:00,
2013-04-26 21:01:00,54.5,36.7,30.17,SE,142,1.0,1.0,51,0.00,,,0.00,meteohub,2013-04-27 01:01:00,
2013-04-26 21:06:00,54.3,38.5,30.17,SSW,207,1.0,1.0,55,0.00,,,0.00,meteohub,2013-04-27 01:06:00,
2013-04-26 21:11:00,54.0,37.8,30.17,SSW,208,0.0,3.0,54,0.00,,,0.00,meteohub,2013-04-27 01:11:00,
2013-04-26 21:16:00,54.0,38.7,30.17,SSW,206,0.0,3.0,56,0.00,,,0.00,meteohub,2013-04-27 01:16:00,
2013-04-26 21:21:00,54.0,37.2,30.17,ENE,62,0.0,2.0,53,0.00,,,0.00,meteohub,2013-04-27 01:21:00,
2013-04-26 21:26:00,55.0,37.8,30.17,ENE,70,1.0,4.0,52,0.00,,,0.00,meteohub,2013-04-27 01:26:00,
2013-04-26 21:31:00,56.3,37.9,30.17,ENE,74,2.0,5.0,50,0.00,,,0.00,meteohub,2013-04-27 01:31:00,
2013-04-26 21:36:00,57.4,37.9,30.17,NE,42,3.0,5.0,48,0.00,,,0.00,meteohub,2013-04-27 01:36:00,
2013-04-26 21:41:00,58.3,39.2,30.17,NE,53,4.0,5.0,49,0.00,,,0.00,meteohub,2013-04-27 01:41:00,
2013-04-26 21:46:00,58.8,39.2,30.17,ENE,66,4.0,6.0,48,0.00,,,0.00,meteohub,2013-04-27 01:46:00,
2013-04-26 21:51:00,59.2,39.6,30.17,East,79,1.0,6.0,48,0.00,,,0.00,meteohub,2013-04-27 01:51:00,
2013-04-26 21:56:00,59.4,39.7,30.17,NE,36,1.0,6.0,48,0.00,,,0.00,meteohub,2013-04-27 01:56:00,
2013-04-26 22:02:00,59.5,39.9,30.17,East,93,2.0,7.0,48,0.00,,,0.00,meteohub,2013-04-27 02:02:00,
2013-04-26 22:07:00,59.4,39.7,30.17,East,99,5.0,7.0,48,0.00,,,0.00,meteohub,2013-04-27 02:07:00,
2013-04-26 22:12:00,59.4,39.7,30.17,SSE,168,2.0,7.0,48,0.00,,,0.00,meteohub,2013-04-27 02:12:00,
2013-04-26 22:17:00,59.4,39.7,30.17,SW,226,3.0,11.0,48,0.00,,,0.00,meteohub,2013-04-27 02:17:00,
2013-04-26 22:22:00,59.4,40.3,30.17,NE,35,1.0,11.0,49,0.00,,,0.00,meteohub,2013-04-27 02:22:00,
2013-04-26 22:27:00,59.2,40.1,30.17,SSW,194,1.0,11.0,49,0.00,,,0.00,meteohub,2013-04-27 02:27:00,
2013-04-26 22:32:00,59.0,40.5,30.17,SSE,159,1.0,8.0,50,0.00,,,0.00,meteohub,2013-04-27 02:32:00,
2013-04-26 22:37:00,59.0,40.5,30.17,South,184,5.0,8.0,50,0.00,,,0.00,meteohub,2013-04-27 02:37:00,
2013-04-26 22:42:00,58.8,40.3,30.17,ESE,113,3.0,8.0,50,0.00,,,0.00,meteohub,2013-04-27 02:42:00,
2013-04-26 22:47:00,58.8,40.8,30.17,SW,214,0.0,10.0,51,0.00,,,0.00,meteohub,2013-04-27 02:47:00,
2013-04-26 22:52:00,58.6,40.1,30.17,East,88,1.0,10.0,50,0.00,,,0.00,meteohub,2013-04-27 02:52:00,
2013-04-26 22:57:00,58.5,40.5,30.17,SW,216,2.0,10.0,51,0.00,,,0.00,meteohub,2013-04-27 02:57:00,
2013-04-26 23:02:00,58.3,40.8,30.17,East,96,3.0,8.0,52,0.00,,,0.00,meteohub,2013-04-27 03:02:00,
2013-04-26 23:07:00,57.9,40.5,30.17,SSE,162,4.0,8.0,52,0.00,,,0.00,meteohub,2013-04-27 03:07:00,
2013-04-26 23:12:00,57.9,40.5,30.17,ESE,120,3.0,7.0,52,0.00,,,0.00,meteohub,2013-04-27 03:12:00,
2013-04-26 23:17:00,57.9,40.8,30.17,ESE,122,2.0,8.0,53,0.00,,,0.00,meteohub,2013-04-27 03:17:00,
2013-04-26 23:22:00,57.7,40.6,30.17,ENE,74,3.0,13.0,53,0.00,,,0.00,meteohub,2013-04-27 03:22:00,
2013-04-26 23:27:00,57.7,41.2,30.17,SW,218,1.0,13.0,54,0.00,,,0.00,meteohub,2013-04-27 03:27:00,
2013-04-26 23:32:00,57.6,41.0,30.17,ESE,120,1.0,7.0,54,0.00,,,0.00,meteohub,2013-04-27 03:32:00,
2013-04-26 23:37:00,57.4,40.8,30.17,West,270,3.0,7.0,54,0.00,,,0.00,meteohub,2013-04-27 03:37:00,
2013-04-26 23:42:00,57.4,41.4,30.17,East,88,3.0,8.0,55,0.00,,,0.00,meteohub,2013-04-27 03:42:00,
2013-04-26 23:47:00,57.2,41.2,30.17,West,271,3.0,8.0,55,0.00,,,0.00,meteohub,2013-04-27 03:47:00,
2013-04-26 23:52:00,57.2,41.2,30.17,NE,55,4.0,9.0,55,0.00,,,0.00,meteohub,2013-04-27 03:52:00,
2013-04-26 23:57:00,57.2,41.7,30.17,NE,41,1.0,9.0,56,0.00,,,0.00,meteohub,2013-04-27 03:57:00,